Time;durP1;ratioP1;P1;durP2;ratioP2;P2;SDS_P1;SDS_P2;PMS_P1;PMS_P2;Temp;Humidity;BMP_temperature;BMP_pressure;BME280_temperature;BME280_humidity;BME280_pressure;Samples;Min_cycle;Max_cycle;Signal;HPM_P1;HPM_P2
2022/09/07 00:07:36;;;;;;;2.30;0.50;;;17.20;99.90;;;;;;20984725;28;20640;-82
2022/09/07 00:17:38;;;;;;;2.53;0.70;;;17.00;99.90;;;;;;20986921;28;20488;-82
2022/09/07 00:27:40;;;;;;;2.80;0.95;;;17.00;99.90;;;;;;20987290;28;20074;-83
2022/09/07 00:37:41;;;;;;;2.83;1.10;;;17.00;99.90;;;;;;20979421;28;20040;-84
2022/09/07 00:47:54;;;;;;;2.10;0.90;;;17.00;99.90;;;;;;20981090;28;20051;-84
2022/09/07 00:57:55;;;;;;;1.60;0.63;;;16.90;99.90;;;;;;20973144;28;20648;-84
2022/09/07 01:07:57;;;;;;;2.42;0.80;;;16.80;99.90;;;;;;20978183;28;20032;-84
2022/09/07 01:18:10;;;;;;;1.13;0.40;;;16.70;99.90;;;;;;20966730;28;21899;-84
2022/09/07 01:28:19;;;;;;;1.23;0.43;;;16.80;99.90;;;;;;20988047;28;20438;-83
2022/09/07 01:38:32;;;;;;;0.65;0.22;;;16.80;99.90;;;;;;20979961;28;20044;-83
2022/09/07 01:48:35;;;;;;;1.92;0.30;;;16.80;99.90;;;;;;20968580;28;20072;-83
2022/09/07 01:58:55;;;;;;;0.73;0.32;;;16.70;99.90;;;;;;20987546;28;20101;-82
2022/09/07 02:09:19;;;;;;;1.08;0.73;;;16.70;99.90;;;;;;20972500;28;21712;-82
2022/09/07 02:19:21;;;;;;;0.50;0.30;;;16.60;99.90;;;;;;20976961;28;20036;-82
2022/09/07 02:29:22;;;;;;;0.93;0.30;;;16.50;99.90;;;;;;20974214;28;20086;-82
2022/09/07 02:39:23;;;;;;;0.40;0.20;;;16.40;99.90;;;;;;20994348;28;20040;-82
2022/09/07 02:49:53;;;;;;;1.70;0.43;;;16.40;99.90;;;;;;20983406;28;20082;-81
2022/09/07 03:00:14;;;;;;;0.63;0.30;;;16.40;99.90;;;;;;20975750;28;20536;-81
2022/09/07 03:10:16;;;;;;;1.05;0.35;;;16.50;99.90;;;;;;20993937;28;20671;-82
2022/09/07 03:20:18;;;;;;;1.30;0.35;;;16.50;99.90;;;;;;21000102;28;20044;-82
2022/09/07 03:30:19;;;;;;;1.83;0.35;;;16.40;99.90;;;;;;20981719;28;20028;-81
2022/09/07 03:40:20;;;;;;;1.73;0.50;;;16.30;99.90;;;;;;20995595;28;20380;-82
2022/09/07 03:50:21;;;;;;;1.38;0.32;;;16.40;99.90;;;;;;20983124;28;20399;-82
2022/09/07 04:00:22;;;;;;;1.15;0.47;;;16.40;99.90;;;;;;20985192;28;20476;-82
2022/09/07 04:10:23;;;;;;;0.43;0.20;;;16.40;99.90;;;;;;21002170;28;20110;-83
2022/09/07 04:20:24;;;;;;;0.57;0.30;;;16.30;99.90;;;;;;20966021;28;20029;-82
2022/09/07 04:30:25;;;;;;;0.40;0.20;;;16.20;99.90;;;;;;20962252;28;20028;-82
2022/09/07 04:40:26;;;;;;;1.10;0.40;;;16.10;99.90;;;;;;20987730;28;20366;-82
2022/09/07 04:50:27;;;;;;;0.45;0.20;;;16.20;99.90;;;;;;20999800;28;20028;-82
2022/09/07 05:00:28;;;;;;;1.35;0.40;;;16.30;99.90;;;;;;20992934;28;20395;-82
2022/09/07 05:10:29;;;;;;;1.73;0.63;;;16.10;99.90;;;;;;20991332;28;20036;-82
2022/09/07 05:20:30;;;;;;;1.20;0.30;;;16.10;99.90;;;;;;21012576;28;20032;-82
2022/09/07 05:30:31;;;;;;;2.08;0.60;;;16.00;99.90;;;;;;20993954;28;20042;-81
2022/09/07 05:40:32;;;;;;;1.10;0.50;;;16.00;99.90;;;;;;20979210;28;20036;-81
2022/09/07 05:50:34;;;;;;;1.85;0.68;;;16.00;99.90;;;;;;20973388;28;20020;-82
2022/09/07 06:00:35;;;;;;;1.48;0.73;;;16.10;99.90;;;;;;20978178;28;20036;-82
2022/09/07 06:10:36;;;;;;;2.88;0.77;;;16.10;99.90;;;;;;21006602;28;20086;-81
2022/09/07 06:20:37;;;;;;;1.85;1.13;;;16.20;99.90;;;;;;21008698;28;20029;-82
2022/09/07 06:30:38;;;;;;;2.53;1.17;;;16.30;99.90;;;;;;20992905;28;20031;-81
2022/09/07 06:40:40;;;;;;;2.67;1.65;;;16.30;99.90;;;;;;20998259;28;20047;-81
2022/09/07 06:50:41;;;;;;;2.25;1.65;;;16.30;99.90;;;;;;20987694;28;20078;-82
2022/09/07 07:00:42;;;;;;;3.83;2.17;;;16.50;99.90;;;;;;20990654;28;20032;-81
2022/09/07 07:10:44;;;;;;;9.00;1.65;;;16.70;99.90;;;;;;21015561;28;20032;-81
2022/09/07 07:20:44;;;;;;;4.60;1.77;;;16.80;99.90;;;;;;20996011;28;20062;-81
2022/09/07 07:30:45;;;;;;;3.00;1.75;;;17.10;99.90;;;;;;21018844;28;20025;-81
2022/09/07 07:40:52;;;;;;;5.75;2.58;;;17.10;99.90;;;;;;20988298;28;20044;-82
2022/09/07 07:50:59;;;;;;;4.03;2.17;;;17.40;99.90;;;;;;20964538;28;20158;-81
2022/09/07 08:01:02;;;;;;;6.32;2.72;;;17.70;99.90;;;;;;20973977;28;21635;-80
2022/09/07 08:11:07;;;;;;;3.30;1.60;;;17.90;99.90;;;;;;20999840;28;20523;-81
2022/09/07 08:21:13;;;;;;;4.90;2.95;;;17.90;99.90;;;;;;20980314;28;20028;-81
2022/09/07 08:31:15;;;;;;;5.50;2.40;;;18.10;99.90;;;;;;20990304;28;20086;-81
2022/09/07 08:41:44;;;;;;;5.55;2.78;;;18.20;99.90;;;;;;20987250;28;20056;-81
2022/09/07 08:52:12;;;;;;;4.00;2.60;;;18.60;99.90;;;;;;20975745;28;20078;-81
2022/09/07 09:02:16;;;;;;;5.45;2.95;;;18.90;99.90;;;;;;20977915;28;20655;-81
2022/09/07 09:12:43;;;;;;;5.40;3.40;;;19.30;99.90;;;;;;20985265;28;20093;-81
2022/09/07 09:22:44;;;;;;;6.23;2.97;;;19.80;99.90;;;;;;20992915;28;20084;-81
2022/09/07 09:32:48;;;;;;;4.93;2.63;;;20.20;99.90;;;;;;20987181;28;20032;-80
2022/09/07 09:43:04;;;;;;;11.40;3.45;;;20.50;99.90;;;;;;20850628;28;20099;-81
2022/09/07 09:53:05;;;;;;;4.10;1.73;;;20.60;99.90;;;;;;20855610;28;21844;-81
2022/09/07 10:03:17;;;;;;;2.30;1.25;;;20.80;99.90;;;;;;20858444;28;20419;-81
2022/09/07 10:13:30;;;;;;;2.63;1.30;;;20.90;99.90;;;;;;20834126;28;20122;-81
2022/09/07 10:23:31;;;;;;;2.92;1.27;;;21.30;99.90;;;;;;20844239;28;20026;-81
2022/09/07 10:33:52;;;;;;;2.08;0.95;;;21.10;99.90;;;;;;20854197;28;20041;-81
2022/09/07 10:43:55;;;;;;;3.55;0.52;;;21.60;99.90;;;;;;20988405;28;20418;-81
2022/09/07 10:54:15;;;;;;;1.48;0.63;;;22.20;99.90;;;;;;20992193;28;20033;-81
2022/09/07 11:04:35;;;;;;;6.15;1.63;;;22.40;99.90;;;;;;20953252;28;21002;-80
2022/09/07 11:15:11;;;;;;;2.50;0.82;;;22.80;99.90;;;;;;20982606;28;20032;-80
2022/09/07 11:25:37;;;;;;;10.73;1.05;;;22.70;99.90;;;;;;20954479;28;20620;-80
2022/09/07 11:35:51;;;;;;;2.35;0.95;;;22.90;99.90;;;;;;21003342;28;20040;-80
2022/09/07 11:45:55;;;;;;;1.00;0.40;;;22.90;99.90;;;;;;21008608;28;20074;-80
2022/09/07 11:56:04;;;;;;;1.90;0.88;;;23.10;99.90;;;;;;21000284;28;20028;-80
2022/09/07 12:06:28;;;;;;;1.45;0.68;;;23.70;99.90;;;;;;20990650;28;21516;-80
2022/09/07 12:16:41;;;;;;;3.30;0.47;;;24.50;99.90;;;;;;21009048;28;20036;-80
2022/09/07 12:26:42;;;;;;;1.60;0.77;;;24.50;99.90;;;;;;20999160;28;20081;-80
2022/09/07 12:36:48;;;;;;;1.15;0.40;;;25.30;99.90;;;;;;21001342;28;20072;-80
2022/09/07 12:46:53;;;;;;;0.97;0.50;;;24.80;99.90;;;;;;20988072;28;20470;-79
2022/09/07 12:56:58;;;;;;;0.80;0.47;;;25.50;99.90;;;;;;20991893;28;20447;-80
2022/09/07 13:07:26;;;;;;;0.60;0.30;;;26.40;99.90;;;;;;20989232;28;20029;-80
2022/09/07 13:17:32;;;;;;;1.45;0.38;;;26.60;99.00;;;;;;21008527;28;20055;-80
2022/09/07 13:27:50;;;;;;;1.50;0.45;;;26.60;99.90;;;;;;20997933;28;20096;-80
2022/09/07 13:37:55;;;;;;;1.13;0.60;;;25.50;99.90;;;;;;20970388;28;20045;-80
2022/09/07 13:48:24;;;;;;;4.32;0.85;;;24.20;99.90;;;;;;21011003;28;20028;-80
2022/09/07 13:58:39;;;;;;;2.58;1.30;;;24.00;99.90;;;;;;20983721;28;20677;-80
2022/09/07 14:08:46;;;;;;;1.92;0.65;;;23.70;99.90;;;;;;20988631;28;20073;-80
2022/09/07 14:18:47;;;;;;;0.93;0.40;;;24.40;99.90;;;;;;20987113;28;20385;-80
2022/09/07 14:28:51;;;;;;;2.08;0.70;;;24.50;99.90;;;;;;20999547;28;20062;-80
2022/09/07 14:38:53;;;;;;;1.33;0.70;;;24.20;99.90;;;;;;20987006;28;20036;-80
2022/09/07 14:48:57;;;;;;;1.02;0.45;;;24.10;99.90;;;;;;20997068;28;20043;-80
2022/09/07 14:58:58;;;;;;;4.40;1.48;;;24.10;99.90;;;;;;21011449;28;20245;-81
2022/09/07 15:08:59;;;;;;;1.70;0.60;;;24.20;99.90;;;;;;20988629;28;20032;-80
2022/09/07 15:19:02;;;;;;;1.80;0.70;;;24.40;99.90;;;;;;20982525;28;20036;-79
2022/09/07 15:29:03;;;;;;;1.33;0.40;;;23.90;99.90;;;;;;21004607;28;20687;-79
2022/09/07 15:39:05;;;;;;;0.75;0.25;;;23.90;99.90;;;;;;20992247;28;20039;-80
2022/09/07 15:49:06;;;;;;;2.45;0.45;;;24.00;99.90;;;;;;20993832;28;20028;-80
2022/09/07 15:59:08;;;;;;;2.60;1.08;;;23.90;99.90;;;;;;20976095;28;20397;-81
2022/09/07 16:09:09;;;;;;;0.88;0.20;;;23.50;99.90;;;;;;20991306;28;20025;-80
2022/09/07 16:19:13;;;;;;;1.55;0.38;;;23.50;99.90;;;;;;20985181;28;20598;-79
2022/09/07 16:29:14;;;;;;;2.33;0.95;;;23.50;99.90;;;;;;20990335;28;20028;-80
2022/09/07 16:39:16;;;;;;;1.80;0.45;;;23.50;99.90;;;;;;21002868;28;20053;-80
2022/09/07 16:49:18;;;;;;;1.73;0.50;;;23.40;99.90;;;;;;20980886;28;20476;-80
2022/09/07 16:59:25;;;;;;;2.85;1.23;;;23.20;99.90;;;;;;21013347;28;20044;-80
2022/09/07 17:09:27;;;;;;;3.07;1.80;;;22.90;99.90;;;;;;21021434;28;20024;-80
2022/09/07 17:19:28;;;;;;;5.15;0.52;;;22.80;99.90;;;;;;21003801;28;20511;-80
2022/09/07 17:29:32;;;;;;;4.07;1.60;;;22.60;99.90;;;;;;21000712;28;20037;-80
2022/09/07 17:39:33;;;;;;;1.98;0.50;;;22.30;99.90;;;;;;21004689;28;20476;-80
2022/09/07 17:49:34;;;;;;;1.08;0.43;;;22.20;99.90;;;;;;20988912;28;20445;-80
2022/09/07 17:59:35;;;;;;;1.42;0.32;;;21.90;99.90;;;;;;20999185;28;20421;-80
2022/09/07 18:09:36;;;;;;;2.05;0.60;;;21.70;99.90;;;;;;21012255;28;20446;-81
2022/09/07 18:19:37;;;;;;;1.98;0.47;;;21.30;99.90;;;;;;21031376;28;20577;-81
2022/09/07 18:29:38;;;;;;;0.85;0.43;;;21.00;99.90;;;;;;21024528;28;20411;-80
2022/09/07 18:39:39;;;;;;;1.80;0.98;;;20.80;99.90;;;;;;21003065;28;20071;-80
2022/09/07 18:49:40;;;;;;;2.00;0.50;;;20.50;99.90;;;;;;21007104;28;20387;-80
2022/09/07 18:59:41;;;;;;;0.95;0.57;;;20.20;99.90;;;;;;21000679;28;20144;-80
2022/09/07 19:09:42;;;;;;;1.55;0.85;;;20.00;99.90;;;;;;21012594;28;20369;-80
2022/09/07 19:19:43;;;;;;;1.85;0.82;;;19.70;99.90;;;;;;21004779;28;20392;-80
2022/09/07 19:29:44;;;;;;;1.02;0.57;;;19.60;99.90;;;;;;21008354;28;20025;-80
2022/09/07 19:39:47;;;;;;;14.98;1.00;;;19.40;99.90;;;;;;20988988;28;20042;-81
2022/09/07 19:49:48;;;;;;;2.45;0.50;;;19.40;99.90;;;;;;20996482;28;20480;-80
2022/09/07 19:59:51;;;;;;;1.40;1.15;;;19.20;99.90;;;;;;20971088;28;20391;-80
2022/09/07 20:09:52;;;;;;;1.80;0.80;;;19.20;99.90;;;;;;20981947;28;20071;-80
2022/09/07 20:19:53;;;;;;;1.60;0.65;;;19.20;99.90;;;;;;20991130;28;20032;-80
2022/09/07 20:29:54;;;;;;;1.85;0.75;;;19.20;99.90;;;;;;20978681;28;20028;-80
2022/09/07 20:39:55;;;;;;;2.67;1.10;;;19.20;99.90;;;;;;20979308;28;20056;-80
2022/09/07 20:49:56;;;;;;;2.88;1.42;;;19.10;99.90;;;;;;20997103;28;20059;-81
2022/09/07 20:59:57;;;;;;;1.88;0.68;;;19.00;99.90;;;;;;20991368;28;20032;-80
2022/09/07 21:09:58;;;;;;;4.53;0.88;;;18.90;99.90;;;;;;20962262;28;20032;-81
2022/09/07 21:19:59;;;;;;;3.38;0.60;;;18.80;99.90;;;;;;20964328;28;20036;-80
2022/09/07 21:30:00;;;;;;;5.07;1.58;;;18.90;99.90;;;;;;20967111;28;20025;-80
2022/09/07 21:40:05;;;;;;;2.22;0.60;;;19.00;99.90;;;;;;20956741;28;20349;-81
2022/09/07 21:50:06;;;;;;;1.38;0.70;;;18.90;99.90;;;;;;20982900;28;20081;-80
2022/09/07 22:00:09;;;;;;;1.50;0.75;;;18.90;99.90;;;;;;20965623;28;20462;-81
2022/09/07 22:10:10;;;;;;;1.02;0.65;;;18.80;99.90;;;;;;20983771;28;20368;-80
2022/09/07 22:20:11;;;;;;;1.52;0.60;;;18.60;99.90;;;;;;20971385;28;20044;-80
2022/09/07 22:30:12;;;;;;;1.40;0.50;;;18.70;99.90;;;;;;20974570;28;20066;-80
2022/09/07 22:40:13;;;;;;;1.42;0.93;;;18.70;99.90;;;;;;20976603;28;20122;-81
2022/09/07 22:50:15;;;;;;;1.50;0.77;;;18.60;99.90;;;;;;20984448;28;20028;-80
2022/09/07 23:00:16;;;;;;;1.48;0.60;;;18.70;99.90;;;;;;20991158;28;20091;-80
2022/09/07 23:10:17;;;;;;;1.95;0.80;;;18.80;99.90;;;;;;20974241;28;20520;-80
2022/09/07 23:20:18;;;;;;;2.83;0.82;;;18.90;99.90;;;;;;21016125;28;20190;-80
2022/09/07 23:30:19;;;;;;;2.38;0.65;;;18.90;99.90;;;;;;21010326;28;20269;-80
2022/09/07 23:40:21;;;;;;;1.33;0.63;;;18.90;99.90;;;;;;20993776;28;20044;-80
2022/09/07 23:50:23;;;;;;;1.88;0.88;;;18.90;99.90;;;;;;21015264;28;20036;-80
